sensor_id;sensor_type;location;lat;lon;timestamp;P1;durP1;ratioP1;P2;durP2;ratioP2
7903;SDS011;3997;48.416;8.512;2022-12-18T00:01:36;9.60;;;7.18;;
7903;SDS011;3997;48.416;8.512;2022-12-18T00:04:03;11.32;;;7.50;;
7903;SDS011;3997;48.416;8.512;2022-12-18T00:06:30;8.95;;;6.88;;
7903;SDS011;3997;48.416;8.512;2022-12-18T00:08:58;11.30;;;7.25;;
7903;SDS011;3997;48.416;8.512;2022-12-18T00:11:25;11.60;;;7.40;;
7903;SDS011;3997;48.416;8.512;2022-12-18T00:13:54;11.18;;;7.93;;
7903;SDS011;3997;48.416;8.512;2022-12-18T00:16:21;12.88;;;7.40;;
7903;SDS011;3997;48.416;8.512;2022-12-18T00:18:48;10.15;;;6.70;;
7903;SDS011;3997;48.416;8.512;2022-12-18T00:21:15;10.95;;;7.68;;
7903;SDS011;3997;48.416;8.512;2022-12-18T00:23:42;9.57;;;7.00;;
7903;SDS011;3997;48.416;8.512;2022-12-18T00:26:10;11.75;;;7.03;;
7903;SDS011;3997;48.416;8.512;2022-12-18T00:28:36;9.63;;;6.15;;
7903;SDS011;3997;48.416;8.512;2022-12-18T00:31:05;8.90;;;6.28;;
7903;SDS011;3997;48.416;8.512;2022-12-18T00:33:32;9.27;;;6.97;;
7903;SDS011;3997;48.416;8.512;2022-12-18T00:36:00;9.95;;;6.60;;
7903;SDS011;3997;48.416;8.512;2022-12-18T00:38:26;12.38;;;7.18;;
7903;SDS011;3997;48.416;8.512;2022-12-18T00:40:53;10.35;;;7.20;;
7903;SDS011;3997;48.416;8.512;2022-12-18T00:43:19;13.40;;;8.75;;
7903;SDS011;3997;48.416;8.512;2022-12-18T00:45:45;11.40;;;8.15;;
7903;SDS011;3997;48.416;8.512;2022-12-18T00:48:13;11.18;;;6.75;;
7903;SDS011;3997;48.416;8.512;2022-12-18T00:50:39;14.10;;;9.20;;
7903;SDS011;3997;48.416;8.512;2022-12-18T00:53:05;14.02;;;8.88;;
7903;SDS011;3997;48.416;8.512;2022-12-18T00:55:39;12.77;;;8.20;;
7903;SDS011;3997;48.416;8.512;2022-12-18T00:58:06;12.23;;;8.45;;
7903;SDS011;3997;48.416;8.512;2022-12-18T01:00:32;11.75;;;7.90;;
7903;SDS011;3997;48.416;8.512;2022-12-18T01:02:59;10.23;;;8.00;;
7903;SDS011;3997;48.416;8.512;2022-12-18T01:05:27;12.80;;;8.52;;
7903;SDS011;3997;48.416;8.512;2022-12-18T01:07:53;12.52;;;8.52;;
7903;SDS011;3997;48.416;8.512;2022-12-18T01:10:21;15.82;;;10.00;;
7903;SDS011;3997;48.416;8.512;2022-12-18T01:12:47;16.35;;;10.05;;
7903;SDS011;3997;48.416;8.512;2022-12-18T01:15:14;13.05;;;8.18;;
7903;SDS011;3997;48.416;8.512;2022-12-18T01:17:41;13.02;;;8.82;;
7903;SDS011;3997;48.416;8.512;2022-12-18T01:20:08;14.75;;;8.98;;
7903;SDS011;3997;48.416;8.512;2022-12-18T01:22:36;13.38;;;8.48;;
7903;SDS011;3997;48.416;8.512;2022-12-18T01:25:03;11.35;;;8.38;;
7903;SDS011;3997;48.416;8.512;2022-12-18T01:27:30;12.02;;;7.90;;
7903;SDS011;3997;48.416;8.512;2022-12-18T01:29:56;12.75;;;8.63;;
7903;SDS011;3997;48.416;8.512;2022-12-18T01:32:23;12.38;;;8.95;;
7903;SDS011;3997;48.416;8.512;2022-12-18T01:34:49;16.10;;;9.07;;
7903;SDS011;3997;48.416;8.512;2022-12-18T01:37:16;15.98;;;10.45;;
7903;SDS011;3997;48.416;8.512;2022-12-18T01:39:44;16.27;;;10.18;;
7903;SDS011;3997;48.416;8.512;2022-12-18T01:42:11;20.15;;;10.40;;
7903;SDS011;3997;48.416;8.512;2022-12-18T01:44:57;17.83;;;10.85;;
7903;SDS011;3997;48.416;8.512;2022-12-18T01:47:25;16.77;;;10.68;;
7903;SDS011;3997;48.416;8.512;2022-12-18T01:49:52;20.77;;;10.10;;
7903;SDS011;3997;48.416;8.512;2022-12-18T01:52:19;21.23;;;10.27;;
7903;SDS011;3997;48.416;8.512;2022-12-18T01:54:47;25.00;;;10.52;;
7903;SDS011;3997;48.416;8.512;2022-12-18T01:57:14;23.27;;;10.10;;
7903;SDS011;3997;48.416;8.512;2022-12-18T01:59:41;28.13;;;10.35;;
7903;SDS011;3997;48.416;8.512;2022-12-18T02:02:08;16.48;;;9.68;;
7903;SDS011;3997;48.416;8.512;2022-12-18T02:04:35;17.05;;;9.98;;
7903;SDS011;3997;48.416;8.512;2022-12-18T02:07:03;23.92;;;10.48;;
7903;SDS011;3997;48.416;8.512;2022-12-18T02:09:33;16.60;;;9.45;;
7903;SDS011;3997;48.416;8.512;2022-12-18T02:12:04;17.65;;;10.18;;
7903;SDS011;3997;48.416;8.512;2022-12-18T02:14:33;16.02;;;9.23;;
7903;SDS011;3997;48.416;8.512;2022-12-18T02:17:03;20.45;;;10.25;;
7903;SDS011;3997;48.416;8.512;2022-12-18T02:19:43;17.83;;;9.10;;
7903;SDS011;3997;48.416;8.512;2022-12-18T02:22:15;17.02;;;9.52;;
7903;SDS011;3997;48.416;8.512;2022-12-18T02:24:44;15.63;;;9.32;;
7903;SDS011;3997;48.416;8.512;2022-12-18T02:27:18;18.92;;;9.80;;
7903;SDS011;3997;48.416;8.512;2022-12-18T02:29:46;18.00;;;10.52;;
7903;SDS011;3997;48.416;8.512;2022-12-18T02:32:14;16.98;;;9.32;;
7903;SDS011;3997;48.416;8.512;2022-12-18T02:34:42;17.00;;;9.25;;
7903;SDS011;3997;48.416;8.512;2022-12-18T02:37:10;17.02;;;9.35;;
7903;SDS011;3997;48.416;8.512;2022-12-18T02:39:38;18.75;;;10.27;;
7903;SDS011;3997;48.416;8.512;2022-12-18T02:42:06;20.10;;;10.88;;
7903;SDS011;3997;48.416;8.512;2022-12-18T02:44:34;18.48;;;10.13;;
7903;SDS011;3997;48.416;8.512;2022-12-18T02:47:01;14.25;;;9.25;;
7903;SDS011;3997;48.416;8.512;2022-12-18T02:49:30;16.52;;;9.48;;
7903;SDS011;3997;48.416;8.512;2022-12-18T02:52:01;19.77;;;10.93;;
7903;SDS011;3997;48.416;8.512;2022-12-18T02:54:35;17.65;;;9.85;;
7903;SDS011;3997;48.416;8.512;2022-12-18T02:57:04;19.63;;;10.30;;
7903;SDS011;3997;48.416;8.512;2022-12-18T02:59:36;20.80;;;10.43;;
7903;SDS011;3997;48.416;8.512;2022-12-18T03:02:06;25.45;;;9.73;;
7903;SDS011;3997;48.416;8.512;2022-12-18T03:04:36;18.90;;;10.35;;
7903;SDS011;3997;48.416;8.512;2022-12-18T03:07:08;19.08;;;10.13;;
7903;SDS011;3997;48.416;8.512;2022-12-18T03:09:36;17.80;;;9.35;;
7903;SDS011;3997;48.416;8.512;2022-12-18T03:12:05;18.75;;;10.50;;
7903;SDS011;3997;48.416;8.512;2022-12-18T03:14:50;17.90;;;9.93;;
7903;SDS011;3997;48.416;8.512;2022-12-18T03:17:18;21.20;;;11.70;;
7903;SDS011;3997;48.416;8.512;2022-12-18T03:19:45;19.50;;;11.10;;
7903;SDS011;3997;48.416;8.512;2022-12-18T03:22:12;15.63;;;9.02;;
7903;SDS011;3997;48.416;8.512;2022-12-18T03:24:38;17.73;;;9.35;;
7903;SDS011;3997;48.416;8.512;2022-12-18T03:27:06;39.97;;;14.82;;
7903;SDS011;3997;48.416;8.512;2022-12-18T03:29:35;17.50;;;9.13;;
7903;SDS011;3997;48.416;8.512;2022-12-18T03:32:10;19.58;;;11.57;;
7903;SDS011;3997;48.416;8.512;2022-12-18T03:34:38;19.10;;;10.23;;
7903;SDS011;3997;48.416;8.512;2022-12-18T03:37:06;17.58;;;10.77;;
7903;SDS011;3997;48.416;8.512;2022-12-18T03:39:33;18.13;;;10.00;;
7903;SDS011;3997;48.416;8.512;2022-12-18T03:42:01;18.20;;;10.55;;
7903;SDS011;3997;48.416;8.512;2022-12-18T03:44:29;24.58;;;11.38;;
7903;SDS011;3997;48.416;8.512;2022-12-18T03:46:58;16.02;;;9.20;;
7903;SDS011;3997;48.416;8.512;2022-12-18T03:49:29;21.42;;;9.60;;
7903;SDS011;3997;48.416;8.512;2022-12-18T03:51:57;22.17;;;9.27;;
7903;SDS011;3997;48.416;8.512;2022-12-18T03:54:27;19.15;;;11.07;;
7903;SDS011;3997;48.416;8.512;2022-12-18T03:56:58;15.25;;;9.55;;
7903;SDS011;3997;48.416;8.512;2022-12-18T03:59:26;20.27;;;10.15;;
7903;SDS011;3997;48.416;8.512;2022-12-18T04:01:53;21.05;;;10.65;;
7903;SDS011;3997;48.416;8.512;2022-12-18T04:04:20;20.95;;;11.15;;
7903;SDS011;3997;48.416;8.512;2022-12-18T04:06:49;23.27;;;12.82;;
7903;SDS011;3997;48.416;8.512;2022-12-18T04:09:16;16.45;;;10.55;;
7903;SDS011;3997;48.416;8.512;2022-12-18T04:11:42;17.48;;;9.43;;
7903;SDS011;3997;48.416;8.512;2022-12-18T04:14:09;19.38;;;10.55;;
7903;SDS011;3997;48.416;8.512;2022-12-18T04:16:36;17.23;;;9.80;;
7903;SDS011;3997;48.416;8.512;2022-12-18T04:19:02;21.33;;;10.90;;
7903;SDS011;3997;48.416;8.512;2022-12-18T04:21:29;17.60;;;10.43;;
7903;SDS011;3997;48.416;8.512;2022-12-18T04:23:56;16.65;;;10.02;;
7903;SDS011;3997;48.416;8.512;2022-12-18T04:26:23;16.30;;;10.40;;
7903;SDS011;3997;48.416;8.512;2022-12-18T04:28:49;16.63;;;10.63;;
7903;SDS011;3997;48.416;8.512;2022-12-18T04:31:16;19.40;;;11.13;;
7903;SDS011;3997;48.416;8.512;2022-12-18T04:33:42;20.40;;;10.05;;
7903;SDS011;3997;48.416;8.512;2022-12-18T04:36:09;20.50;;;11.30;;
7903;SDS011;3997;48.416;8.512;2022-12-18T04:38:37;16.45;;;9.50;;
7903;SDS011;3997;48.416;8.512;2022-12-18T04:41:05;18.92;;;10.48;;
7903;SDS011;3997;48.416;8.512;2022-12-18T04:43:31;17.45;;;10.20;;
7903;SDS011;3997;48.416;8.512;2022-12-18T04:46:01;18.88;;;10.95;;
7903;SDS011;3997;48.416;8.512;2022-12-18T04:48:28;20.92;;;11.25;;
7903;SDS011;3997;48.416;8.512;2022-12-18T04:50:54;17.75;;;10.10;;
7903;SDS011;3997;48.416;8.512;2022-12-18T04:53:21;18.35;;;10.82;;
7903;SDS011;3997;48.416;8.512;2022-12-18T04:55:47;18.10;;;10.38;;
7903;SDS011;3997;48.416;8.512;2022-12-18T04:58:15;14.80;;;9.93;;
7903;SDS011;3997;48.416;8.512;2022-12-18T05:00:41;16.45;;;10.48;;
7903;SDS011;3997;48.416;8.512;2022-12-18T05:03:08;17.35;;;9.73;;
7903;SDS011;3997;48.416;8.512;2022-12-18T05:05:34;17.15;;;10.45;;
7903;SDS011;3997;48.416;8.512;2022-12-18T05:08:01;18.65;;;10.77;;
7903;SDS011;3997;48.416;8.512;2022-12-18T05:10:27;18.45;;;9.27;;
7903;SDS011;3997;48.416;8.512;2022-12-18T05:12:53;20.45;;;10.00;;
7903;SDS011;3997;48.416;8.512;2022-12-18T05:15:28;23.95;;;13.68;;
7903;SDS011;3997;48.416;8.512;2022-12-18T05:17:55;20.13;;;11.77;;
7903;SDS011;3997;48.416;8.512;2022-12-18T05:20:22;19.25;;;11.38;;
7903;SDS011;3997;48.416;8.512;2022-12-18T05:22:48;25.95;;;15.23;;
7903;SDS011;3997;48.416;8.512;2022-12-18T05:25:15;21.08;;;13.65;;
7903;SDS011;3997;48.416;8.512;2022-12-18T05:27:41;19.35;;;11.15;;
7903;SDS011;3997;48.416;8.512;2022-12-18T05:30:08;25.17;;;15.57;;
7903;SDS011;3997;48.416;8.512;2022-12-18T05:32:36;26.55;;;16.17;;
7903;SDS011;3997;48.416;8.512;2022-12-18T05:35:03;20.75;;;12.80;;
7903;SDS011;3997;48.416;8.512;2022-12-18T05:37:30;19.75;;;11.32;;
7903;SDS011;3997;48.416;8.512;2022-12-18T05:39:56;16.63;;;10.00;;
7903;SDS011;3997;48.416;8.512;2022-12-18T05:42:23;16.60;;;10.18;;
7903;SDS011;3997;48.416;8.512;2022-12-18T05:44:49;17.60;;;11.27;;
7903;SDS011;3997;48.416;8.512;2022-12-18T05:47:16;17.00;;;10.85;;
7903;SDS011;3997;48.416;8.512;2022-12-18T05:49:44;16.10;;;9.55;;
7903;SDS011;3997;48.416;8.512;2022-12-18T05:52:10;19.90;;;12.27;;
7903;SDS011;3997;48.416;8.512;2022-12-18T05:54:36;17.85;;;10.60;;
7903;SDS011;3997;48.416;8.512;2022-12-18T05:57:04;19.00;;;11.57;;
7903;SDS011;3997;48.416;8.512;2022-12-18T05:59:30;15.27;;;9.15;;
7903;SDS011;3997;48.416;8.512;2022-12-18T06:01:56;17.73;;;10.45;;
7903;SDS011;3997;48.416;8.512;2022-12-18T06:04:23;18.15;;;11.65;;
7903;SDS011;3997;48.416;8.512;2022-12-18T06:06:51;19.42;;;12.32;;
7903;SDS011;3997;48.416;8.512;2022-12-18T06:09:17;16.58;;;9.88;;
7903;SDS011;3997;48.416;8.512;2022-12-18T06:11:43;18.65;;;11.40;;
7903;SDS011;3997;48.416;8.512;2022-12-18T06:14:10;18.50;;;11.55;;
7903;SDS011;3997;48.416;8.512;2022-12-18T06:16:36;25.63;;;14.95;;
7903;SDS011;3997;48.416;8.512;2022-12-18T06:19:03;19.05;;;10.45;;
7903;SDS011;3997;48.416;8.512;2022-12-18T06:21:30;20.33;;;10.77;;
7903;SDS011;3997;48.416;8.512;2022-12-18T06:23:59;17.73;;;11.45;;
7903;SDS011;3997;48.416;8.512;2022-12-18T06:26:25;18.80;;;11.18;;
7903;SDS011;3997;48.416;8.512;2022-12-18T06:28:52;20.77;;;11.35;;
7903;SDS011;3997;48.416;8.512;2022-12-18T06:31:18;20.95;;;11.40;;
7903;SDS011;3997;48.416;8.512;2022-12-18T06:33:45;20.70;;;12.52;;
7903;SDS011;3997;48.416;8.512;2022-12-18T06:36:12;18.58;;;11.10;;
7903;SDS011;3997;48.416;8.512;2022-12-18T06:38:39;18.35;;;10.50;;
7903;SDS011;3997;48.416;8.512;2022-12-18T06:41:08;18.30;;;11.27;;
7903;SDS011;3997;48.416;8.512;2022-12-18T06:43:35;21.10;;;12.95;;
7903;SDS011;3997;48.416;8.512;2022-12-18T06:46:02;19.15;;;11.52;;
7903;SDS011;3997;48.416;8.512;2022-12-18T06:48:29;31.17;;;19.08;;
7903;SDS011;3997;48.416;8.512;2022-12-18T06:50:56;32.28;;;20.60;;
7903;SDS011;3997;48.416;8.512;2022-12-18T06:53:22;18.70;;;12.05;;
7903;SDS011;3997;48.416;8.512;2022-12-18T06:55:49;21.20;;;12.40;;
7903;SDS011;3997;48.416;8.512;2022-12-18T06:58:17;18.92;;;11.07;;
7903;SDS011;3997;48.416;8.512;2022-12-18T07:00:43;20.80;;;11.63;;
7903;SDS011;3997;48.416;8.512;2022-12-18T07:03:10;20.80;;;12.65;;
7903;SDS011;3997;48.416;8.512;2022-12-18T07:05:39;19.70;;;11.15;;
7903;SDS011;3997;48.416;8.512;2022-12-18T07:08:05;21.50;;;12.82;;
7903;SDS011;3997;48.416;8.512;2022-12-18T07:10:32;20.70;;;11.95;;
7903;SDS011;3997;48.416;8.512;2022-12-18T07:12:58;18.05;;;10.98;;
7903;SDS011;3997;48.416;8.512;2022-12-18T07:15:26;16.95;;;10.25;;
7903;SDS011;3997;48.416;8.512;2022-12-18T07:17:52;21.65;;;12.40;;
7903;SDS011;3997;48.416;8.512;2022-12-18T07:20:19;19.17;;;11.40;;
7903;SDS011;3997;48.416;8.512;2022-12-18T07:22:45;27.55;;;18.98;;
7903;SDS011;3997;48.416;8.512;2022-12-18T07:25:11;44.30;;;27.58;;
7903;SDS011;3997;48.416;8.512;2022-12-18T07:27:38;35.30;;;23.35;;
7903;SDS011;3997;48.416;8.512;2022-12-18T07:30:05;19.75;;;12.13;;
7903;SDS011;3997;48.416;8.512;2022-12-18T07:32:33;22.60;;;12.52;;
7903;SDS011;3997;48.416;8.512;2022-12-18T07:34:59;21.85;;;12.88;;
7903;SDS011;3997;48.416;8.512;2022-12-18T07:37:26;24.48;;;13.00;;
7903;SDS011;3997;48.416;8.512;2022-12-18T07:39:52;19.58;;;12.30;;
7903;SDS011;3997;48.416;8.512;2022-12-18T07:42:19;22.95;;;13.43;;
7903;SDS011;3997;48.416;8.512;2022-12-18T07:44:57;18.23;;;10.70;;
7903;SDS011;3997;48.416;8.512;2022-12-18T07:47:23;22.50;;;13.60;;
7903;SDS011;3997;48.416;8.512;2022-12-18T07:49:51;20.98;;;12.50;;
7903;SDS011;3997;48.416;8.512;2022-12-18T07:52:18;23.23;;;13.55;;
7903;SDS011;3997;48.416;8.512;2022-12-18T07:54:44;22.10;;;13.50;;
7903;SDS011;3997;48.416;8.512;2022-12-18T07:57:12;22.38;;;12.13;;
7903;SDS011;3997;48.416;8.512;2022-12-18T07:59:38;20.45;;;12.43;;
7903;SDS011;3997;48.416;8.512;2022-12-18T08:02:05;22.83;;;13.88;;
7903;SDS011;3997;48.416;8.512;2022-12-18T08:04:34;25.52;;;13.32;;
7903;SDS011;3997;48.416;8.512;2022-12-18T08:07:02;23.13;;;12.90;;
7903;SDS011;3997;48.416;8.512;2022-12-18T08:09:29;22.50;;;13.38;;
7903;SDS011;3997;48.416;8.512;2022-12-18T08:11:55;21.95;;;13.25;;
7903;SDS011;3997;48.416;8.512;2022-12-18T08:14:21;23.05;;;12.27;;
7903;SDS011;3997;48.416;8.512;2022-12-18T08:16:48;24.10;;;12.70;;
7903;SDS011;3997;48.416;8.512;2022-12-18T08:19:14;21.05;;;11.90;;
7903;SDS011;3997;48.416;8.512;2022-12-18T08:21:41;22.20;;;12.70;;
7903;SDS011;3997;48.416;8.512;2022-12-18T08:24:09;21.35;;;12.02;;
7903;SDS011;3997;48.416;8.512;2022-12-18T08:26:36;23.38;;;13.77;;
7903;SDS011;3997;48.416;8.512;2022-12-18T08:29:02;24.08;;;13.65;;
7903;SDS011;3997;48.416;8.512;2022-12-18T08:31:29;25.52;;;13.90;;
7903;SDS011;3997;48.416;8.512;2022-12-18T08:33:56;20.00;;;11.35;;
7903;SDS011;3997;48.416;8.512;2022-12-18T08:36:23;20.25;;;12.27;;
7903;SDS011;3997;48.416;8.512;2022-12-18T08:38:50;24.95;;;13.77;;
7903;SDS011;3997;48.416;8.512;2022-12-18T08:41:18;21.13;;;11.57;;
7903;SDS011;3997;48.416;8.512;2022-12-18T08:43:44;19.63;;;11.27;;
7903;SDS011;3997;48.416;8.512;2022-12-18T08:46:32;26.90;;;13.82;;
7903;SDS011;3997;48.416;8.512;2022-12-18T08:48:59;19.60;;;11.70;;
7903;SDS011;3997;48.416;8.512;2022-12-18T08:51:25;21.58;;;10.35;;
7903;SDS011;3997;48.416;8.512;2022-12-18T08:53:51;24.08;;;12.85;;
7903;SDS011;3997;48.416;8.512;2022-12-18T08:56:19;24.63;;;12.07;;
7903;SDS011;3997;48.416;8.512;2022-12-18T08:58:46;18.40;;;11.13;;
7903;SDS011;3997;48.416;8.512;2022-12-18T09:01:12;22.45;;;12.65;;
7903;SDS011;3997;48.416;8.512;2022-12-18T09:03:39;26.23;;;12.15;;
7903;SDS011;3997;48.416;8.512;2022-12-18T09:06:06;24.15;;;13.18;;
7903;SDS011;3997;48.416;8.512;2022-12-18T09:08:33;24.88;;;13.52;;
7903;SDS011;3997;48.416;8.512;2022-12-18T09:10:59;19.80;;;11.68;;
7903;SDS011;3997;48.416;8.512;2022-12-18T09:13:27;23.23;;;13.38;;
7903;SDS011;3997;48.416;8.512;2022-12-18T09:15:54;26.15;;;12.85;;
7903;SDS011;3997;48.416;8.512;2022-12-18T09:18:21;31.23;;;15.43;;
7903;SDS011;3997;48.416;8.512;2022-12-18T09:20:47;23.55;;;11.80;;
7903;SDS011;3997;48.416;8.512;2022-12-18T09:23:15;24.77;;;12.30;;
7903;SDS011;3997;48.416;8.512;2022-12-18T09:25:41;22.27;;;12.52;;
7903;SDS011;3997;48.416;8.512;2022-12-18T09:28:09;24.58;;;13.55;;
7903;SDS011;3997;48.416;8.512;2022-12-18T09:30:38;27.10;;;14.32;;
7903;SDS011;3997;48.416;8.512;2022-12-18T09:33:04;22.98;;;11.57;;
7903;SDS011;3997;48.416;8.512;2022-12-18T09:35:31;20.65;;;11.70;;
7903;SDS011;3997;48.416;8.512;2022-12-18T09:37:57;25.55;;;12.30;;
7903;SDS011;3997;48.416;8.512;2022-12-18T09:40:25;25.25;;;13.45;;
7903;SDS011;3997;48.416;8.512;2022-12-18T09:42:53;25.67;;;14.30;;
7903;SDS011;3997;48.416;8.512;2022-12-18T09:45:21;31.13;;;15.80;;
7903;SDS011;3997;48.416;8.512;2022-12-18T09:47:50;26.25;;;13.70;;
7903;SDS011;3997;48.416;8.512;2022-12-18T09:50:19;28.08;;;13.65;;
7903;SDS011;3997;48.416;8.512;2022-12-18T09:52:49;21.50;;;12.98;;
7903;SDS011;3997;48.416;8.512;2022-12-18T09:55:19;28.55;;;14.30;;
7903;SDS011;3997;48.416;8.512;2022-12-18T09:57:49;33.47;;;16.40;;
7903;SDS011;3997;48.416;8.512;2022-12-18T10:00:18;27.10;;;16.08;;
7903;SDS011;3997;48.416;8.512;2022-12-18T10:02:45;23.88;;;14.50;;
7903;SDS011;3997;48.416;8.512;2022-12-18T10:05:13;26.95;;;14.80;;
7903;SDS011;3997;48.416;8.512;2022-12-18T10:07:43;27.48;;;15.35;;
7903;SDS011;3997;48.416;8.512;2022-12-18T10:10:15;30.92;;;16.58;;
7903;SDS011;3997;48.416;8.512;2022-12-18T10:12:45;29.05;;;14.95;;
7903;SDS011;3997;48.416;8.512;2022-12-18T10:15:15;27.13;;;15.57;;
7903;SDS011;3997;48.416;8.512;2022-12-18T10:17:45;29.02;;;17.15;;
7903;SDS011;3997;48.416;8.512;2022-12-18T10:20:16;27.38;;;15.55;;
7903;SDS011;3997;48.416;8.512;2022-12-18T10:22:46;30.10;;;16.10;;
7903;SDS011;3997;48.416;8.512;2022-12-18T10:25:16;25.80;;;15.20;;
7903;SDS011;3997;48.416;8.512;2022-12-18T10:27:44;26.17;;;15.25;;
7903;SDS011;3997;48.416;8.512;2022-12-18T10:30:12;24.02;;;13.60;;
7903;SDS011;3997;48.416;8.512;2022-12-18T10:32:39;23.00;;;12.65;;
7903;SDS011;3997;48.416;8.512;2022-12-18T10:35:07;21.10;;;11.65;;
7903;SDS011;3997;48.416;8.512;2022-12-18T10:37:39;26.00;;;14.38;;
7903;SDS011;3997;48.416;8.512;2022-12-18T10:40:24;25.33;;;15.35;;
7903;SDS011;3997;48.416;8.512;2022-12-18T10:42:59;27.25;;;15.20;;
7903;SDS011;3997;48.416;8.512;2022-12-18T10:45:29;25.45;;;14.48;;
7903;SDS011;3997;48.416;8.512;2022-12-18T10:47:55;30.20;;;14.60;;
7903;SDS011;3997;48.416;8.512;2022-12-18T10:50:27;26.52;;;14.90;;
7903;SDS011;3997;48.416;8.512;2022-12-18T10:52:57;27.00;;;15.35;;
7903;SDS011;3997;48.416;8.512;2022-12-18T10:55:24;29.98;;;15.55;;
7903;SDS011;3997;48.416;8.512;2022-12-18T10:57:52;27.63;;;14.90;;
7903;SDS011;3997;48.416;8.512;2022-12-18T11:00:26;26.67;;;14.65;;
7903;SDS011;3997;48.416;8.512;2022-12-18T11:02:53;25.13;;;14.80;;
7903;SDS011;3997;48.416;8.512;2022-12-18T11:05:23;23.17;;;14.48;;
7903;SDS011;3997;48.416;8.512;2022-12-18T11:07:50;24.48;;;14.57;;
7903;SDS011;3997;48.416;8.512;2022-12-18T11:10:25;30.73;;;16.83;;
7903;SDS011;3997;48.416;8.512;2022-12-18T11:12:51;30.58;;;17.60;;
7903;SDS011;3997;48.416;8.512;2022-12-18T11:15:19;25.77;;;15.80;;
7903;SDS011;3997;48.416;8.512;2022-12-18T11:17:46;28.83;;;14.45;;
7903;SDS011;3997;48.416;8.512;2022-12-18T11:20:19;25.50;;;14.50;;
7903;SDS011;3997;48.416;8.512;2022-12-18T11:22:54;26.38;;;13.77;;
7903;SDS011;3997;48.416;8.512;2022-12-18T11:25:22;25.33;;;13.32;;
7903;SDS011;3997;48.416;8.512;2022-12-18T11:27:49;27.38;;;14.85;;
7903;SDS011;3997;48.416;8.512;2022-12-18T11:30:21;33.67;;;17.63;;
7903;SDS011;3997;48.416;8.512;2022-12-18T11:32:48;27.65;;;15.02;;
7903;SDS011;3997;48.416;8.512;2022-12-18T11:35:17;24.58;;;14.23;;
7903;SDS011;3997;48.416;8.512;2022-12-18T11:37:46;26.33;;;14.50;;
7903;SDS011;3997;48.416;8.512;2022-12-18T11:40:14;24.33;;;13.68;;
7903;SDS011;3997;48.416;8.512;2022-12-18T11:42:46;30.75;;;15.85;;
7903;SDS011;3997;48.416;8.512;2022-12-18T11:45:20;27.20;;;14.55;;
7903;SDS011;3997;48.416;8.512;2022-12-18T11:47:49;31.77;;;15.18;;
7903;SDS011;3997;48.416;8.512;2022-12-18T11:50:19;26.38;;;13.93;;
7903;SDS011;3997;48.416;8.512;2022-12-18T11:52:47;31.45;;;16.45;;
7903;SDS011;3997;48.416;8.512;2022-12-18T11:55:14;23.50;;;11.82;;
7903;SDS011;3997;48.416;8.512;2022-12-18T11:57:44;25.73;;;15.68;;
7903;SDS011;3997;48.416;8.512;2022-12-18T12:00:17;29.05;;;15.60;;
7903;SDS011;3997;48.416;8.512;2022-12-18T12:05:28;30.65;;;15.68;;
7903;SDS011;3997;48.416;8.512;2022-12-18T12:08:01;25.98;;;15.23;;
7903;SDS011;3997;48.416;8.512;2022-12-18T12:10:35;28.23;;;15.82;;
7903;SDS011;3997;48.416;8.512;2022-12-18T12:13:09;27.02;;;14.50;;
7903;SDS011;3997;48.416;8.512;2022-12-18T12:15:41;31.00;;;16.05;;
7903;SDS011;3997;48.416;8.512;2022-12-18T12:18:13;31.73;;;16.17;;
7903;SDS011;3997;48.416;8.512;2022-12-18T12:20:47;27.38;;;14.82;;
7903;SDS011;3997;48.416;8.512;2022-12-18T12:23:18;32.35;;;17.67;;
7903;SDS011;3997;48.416;8.512;2022-12-18T12:25:46;28.35;;;17.17;;
7903;SDS011;3997;48.416;8.512;2022-12-18T12:28:17;26.90;;;14.95;;
7903;SDS011;3997;48.416;8.512;2022-12-18T12:30:50;27.42;;;16.42;;
7903;SDS011;3997;48.416;8.512;2022-12-18T12:33:24;33.60;;;18.83;;
7903;SDS011;3997;48.416;8.512;2022-12-18T12:35:55;26.92;;;15.40;;
7903;SDS011;3997;48.416;8.512;2022-12-18T12:38:25;30.77;;;18.98;;
7903;SDS011;3997;48.416;8.512;2022-12-18T12:40:53;32.42;;;17.45;;
7903;SDS011;3997;48.416;8.512;2022-12-18T12:43:24;28.17;;;16.58;;
7903;SDS011;3997;48.416;8.512;2022-12-18T12:45:53;26.02;;;14.75;;
7903;SDS011;3997;48.416;8.512;2022-12-18T12:48:23;25.73;;;15.18;;
7903;SDS011;3997;48.416;8.512;2022-12-18T12:50:50;24.55;;;13.65;;
7903;SDS011;3997;48.416;8.512;2022-12-18T12:53:21;24.83;;;13.40;;
7903;SDS011;3997;48.416;8.512;2022-12-18T12:55:48;26.67;;;15.30;;
7903;SDS011;3997;48.416;8.512;2022-12-18T12:58:16;25.55;;;14.40;;
7903;SDS011;3997;48.416;8.512;2022-12-18T13:00:46;30.08;;;16.85;;
7903;SDS011;3997;48.416;8.512;2022-12-18T13:03:18;30.23;;;15.80;;
7903;SDS011;3997;48.416;8.512;2022-12-18T13:05:51;24.00;;;14.02;;
7903;SDS011;3997;48.416;8.512;2022-12-18T13:08:23;27.25;;;16.40;;
7903;SDS011;3997;48.416;8.512;2022-12-18T13:10:50;23.67;;;14.70;;
7903;SDS011;3997;48.416;8.512;2022-12-18T13:13:47;27.58;;;16.48;;
7903;SDS011;3997;48.416;8.512;2022-12-18T13:16:13;26.48;;;15.75;;
7903;SDS011;3997;48.416;8.512;2022-12-18T13:18:49;29.10;;;16.50;;
7903;SDS011;3997;48.416;8.512;2022-12-18T13:21:18;28.65;;;15.85;;
7903;SDS011;3997;48.416;8.512;2022-12-18T13:23:46;27.73;;;15.82;;
7903;SDS011;3997;48.416;8.512;2022-12-18T13:26:30;23.48;;;13.90;;
7903;SDS011;3997;48.416;8.512;2022-12-18T13:28:58;28.73;;;14.70;;
7903;SDS011;3997;48.416;8.512;2022-12-18T13:34:14;31.35;;;17.52;;
7903;SDS011;3997;48.416;8.512;2022-12-18T13:36:41;25.63;;;15.35;;
7903;SDS011;3997;48.416;8.512;2022-12-18T13:39:20;30.38;;;15.27;;
7903;SDS011;3997;48.416;8.512;2022-12-18T13:41:47;24.92;;;15.15;;
7903;SDS011;3997;48.416;8.512;2022-12-18T13:44:20;29.27;;;15.57;;
7903;SDS011;3997;48.416;8.512;2022-12-18T13:46:48;30.75;;;17.85;;
7903;SDS011;3997;48.416;8.512;2022-12-18T13:49:21;26.90;;;15.93;;
7903;SDS011;3997;48.416;8.512;2022-12-18T13:51:49;29.67;;;16.92;;
7903;SDS011;3997;48.416;8.512;2022-12-18T13:54:18;25.35;;;15.10;;
7903;SDS011;3997;48.416;8.512;2022-12-18T13:56:45;27.48;;;13.90;;
7903;SDS011;3997;48.416;8.512;2022-12-18T13:59:13;26.35;;;14.75;;
7903;SDS011;3997;48.416;8.512;2022-12-18T14:01:43;25.50;;;14.55;;
7903;SDS011;3997;48.416;8.512;2022-12-18T14:04:10;24.70;;;14.32;;
7903;SDS011;3997;48.416;8.512;2022-12-18T14:06:38;31.02;;;16.63;;
7903;SDS011;3997;48.416;8.512;2022-12-18T14:09:05;24.95;;;15.93;;
7903;SDS011;3997;48.416;8.512;2022-12-18T14:11:31;26.80;;;15.90;;
7903;SDS011;3997;48.416;8.512;2022-12-18T14:13:58;25.92;;;15.23;;
7903;SDS011;3997;48.416;8.512;2022-12-18T14:16:24;25.48;;;16.35;;
7903;SDS011;3997;48.416;8.512;2022-12-18T14:18:52;31.85;;;18.52;;
7903;SDS011;3997;48.416;8.512;2022-12-18T14:21:20;27.67;;;15.50;;
7903;SDS011;3997;48.416;8.512;2022-12-18T14:23:48;26.90;;;15.38;;
7903;SDS011;3997;48.416;8.512;2022-12-18T14:26:20;29.20;;;16.75;;
7903;SDS011;3997;48.416;8.512;2022-12-18T14:28:46;27.42;;;15.38;;
7903;SDS011;3997;48.416;8.512;2022-12-18T14:31:16;28.27;;;14.77;;
7903;SDS011;3997;48.416;8.512;2022-12-18T14:33:43;29.55;;;16.45;;
7903;SDS011;3997;48.416;8.512;2022-12-18T14:36:14;33.35;;;19.10;;
7903;SDS011;3997;48.416;8.512;2022-12-18T14:38:42;81.30;;;67.50;;
7903;SDS011;3997;48.416;8.512;2022-12-18T14:41:11;23.50;;;15.27;;
7903;SDS011;3997;48.416;8.512;2022-12-18T14:43:39;35.35;;;23.20;;
7903;SDS011;3997;48.416;8.512;2022-12-18T14:46:05;25.48;;;14.38;;
7903;SDS011;3997;48.416;8.512;2022-12-18T14:48:35;27.98;;;15.63;;
7903;SDS011;3997;48.416;8.512;2022-12-18T14:51:03;26.75;;;15.05;;
7903;SDS011;3997;48.416;8.512;2022-12-18T14:53:34;27.13;;;16.15;;
7903;SDS011;3997;48.416;8.512;2022-12-18T14:56:01;27.15;;;15.15;;
7903;SDS011;3997;48.416;8.512;2022-12-18T14:58:29;25.17;;;14.15;;
7903;SDS011;3997;48.416;8.512;2022-12-18T15:00:56;26.60;;;13.15;;
7903;SDS011;3997;48.416;8.512;2022-12-18T15:03:22;28.40;;;13.98;;